Time;durP1;ratioP1;P1;durP2;ratioP2;P2;SDS_P1;SDS_P2;PMS_P1;PMS_P2;Temp;Humidity;BMP_temperature;BMP_pressure;BME280_temperature;BME280_humidity;BME280_pressure;Samples;Min_cycle;Max_cycle;Signal;HPM_P1;HPM_P2
2023/11/22 00:00:01;;;;;;;0.00;0.00;;;;;;;;;;5038672;28;20072;-91
2023/11/22 00:09:32;;;;;;;0.10;0.10;;;;;;;;;;4989065;28;20053;-91
2023/11/22 00:12:02;;;;;;;0.20;0.20;;;;;;;;;;5051362;28;20421;-90
2023/11/22 00:14:34;;;;;;;0.10;0.10;;;;;;;;;;5032091;28;20065;-90
2023/11/22 00:17:03;;;;;;;0.10;0.10;;;;;;;;;;5030790;28;20054;-91
2023/11/22 00:19:34;;;;;;;0.10;0.10;;;;;;;;;;5030791;28;20126;-91
2023/11/22 00:22:11;;;;;;;0.10;0.10;;;;;;;;;;5034480;28;20049;-91
2023/11/22 00:24:42;;;;;;;0.10;0.10;;;;;;;;;;5043533;28;20060;-92
2023/11/22 00:27:10;;;;;;;0.10;0.10;;;;;;;;;;5034355;28;20181;-92
2023/11/22 00:29:38;;;;;;;0.10;0.10;;;;;;;;;;5048183;28;20069;-92
2023/11/22 00:38:50;;;;;;;0.10;0.10;;;;;;;;;;5047341;28;20095;-92
2023/11/22 00:41:21;;;;;;;0.08;0.08;;;;;;;;;;5031800;28;20187;-91
2023/11/22 00:43:48;;;;;;;0.00;0.00;;;;;;;;;;5032377;28;20053;-90
2023/11/22 00:46:19;;;;;;;0.10;0.10;;;;;;;;;;5034732;28;20064;-91
2023/11/22 00:48:50;;;;;;;0.00;0.00;;;;;;;;;;5047691;28;20041;-91
2023/11/22 00:51:19;;;;;;;0.10;0.10;;;;;;;;;;5030149;28;20333;-90
2023/11/22 00:53:47;;;;;;;0.10;0.10;;;;;;;;;;5047454;28;20053;-91
2023/11/22 00:56:15;;;;;;;0.10;0.10;;;;;;;;;;5030513;28;20053;-92
2023/11/22 00:58:43;;;;;;;0.10;0.10;;;;;;;;;;5048082;28;20063;-91
2023/11/22 01:01:12;;;;;;;0.00;0.00;;;;;;;;;;5029648;28;20113;-91
2023/11/22 01:03:39;;;;;;;0.10;0.10;;;;;;;;;;5029775;28;20045;-91
2023/11/22 01:06:09;;;;;;;0.10;0.10;;;;;;;;;;5029855;28;20413;-91
2023/11/22 01:08:38;;;;;;;0.03;0.03;;;;;;;;;;5047753;28;20067;-90
2023/11/22 01:11:07;;;;;;;0.00;0.00;;;;;;;;;;5030608;28;20084;-90
2023/11/22 01:13:40;;;;;;;0.00;0.00;;;;;;;;;;5013588;28;20065;-91
2023/11/22 01:16:10;;;;;;;0.10;0.10;;;;;;;;;;5012146;28;20050;-92
2023/11/22 01:21:44;;;;;;;0.10;0.10;;;;;;;;;;5024802;28;20048;-92
2023/11/22 01:24:27;;;;;;;0.03;0.03;;;;;;;;;;5011917;28;20054;-91
2023/11/22 01:26:56;;;;;;;0.10;0.10;;;;;;;;;;5011185;28;20058;-92
2023/11/22 01:29:24;;;;;;;0.00;0.00;;;;;;;;;;5027913;28;20073;-92
2023/11/22 01:31:52;;;;;;;0.10;0.10;;;;;;;;;;5010450;28;20112;-91
2023/11/22 01:34:19;;;;;;;0.10;0.10;;;;;;;;;;5027611;28;20242;-91
2023/11/22 01:36:51;;;;;;;0.10;0.10;;;;;;;;;;5026633;28;20052;-91
2023/11/22 01:39:21;;;;;;;0.10;0.10;;;;;;;;;;5012577;28;20116;-91
2023/11/22 01:41:49;;;;;;;0.10;0.10;;;;;;;;;;5031920;28;20373;-91
2023/11/22 01:44:30;;;;;;;0.10;0.10;;;;;;;;;;5037954;28;20116;-88
2023/11/22 01:47:37;;;;;;;0.10;0.10;;;;;;;;;;5023462;28;20058;-88
2023/11/22 01:50:22;;;;;;;0.20;0.20;;;;;;;;;;5022876;28;20078;-91
2023/11/22 01:52:49;;;;;;;0.10;0.10;;;;;;;;;;5014713;28;20038;-92
2023/11/22 01:55:18;;;;;;;0.10;0.10;;;;;;;;;;5030997;28;20064;-92
2023/11/22 01:57:45;;;;;;;0.10;0.10;;;;;;;;;;5030967;28;20065;-91
2023/11/22 02:00:15;;;;;;;0.20;0.20;;;;;;;;;;5013508;28;20054;-91
2023/11/22 02:02:43;;;;;;;0.10;0.10;;;;;;;;;;5013059;28;20052;-92
2023/11/22 02:05:12;;;;;;;0.10;0.10;;;;;;;;;;5013795;28;20050;-92
2023/11/22 02:07:41;;;;;;;0.10;0.10;;;;;;;;;;5031093;28;20046;-93
2023/11/22 02:10:09;;;;;;;0.20;0.20;;;;;;;;;;5035582;28;20066;-92
2023/11/22 02:12:38;;;;;;;0.10;0.10;;;;;;;;;;5013749;28;20062;-92
2023/11/22 02:15:08;;;;;;;0.00;0.00;;;;;;;;;;5014988;28;20060;-91
2023/11/22 02:17:37;;;;;;;0.10;0.10;;;;;;;;;;5014254;28;20109;-91
2023/11/22 02:20:10;;;;;;;0.10;0.10;;;;;;;;;;5015344;28;20054;-91
2023/11/22 02:22:45;;;;;;;0.10;0.10;;;;;;;;;;5017273;28;20371;-91
2023/11/22 02:25:15;;;;;;;0.00;0.00;;;;;;;;;;5014551;28;20054;-92
2023/11/22 02:27:45;;;;;;;0.00;0.00;;;;;;;;;;5029925;28;20062;-93
2023/11/22 02:30:12;;;;;;;0.17;0.17;;;;;;;;;;5013237;28;20054;-91
2023/11/22 02:32:40;;;;;;;0.10;0.10;;;;;;;;;;5013197;28;20050;-92
2023/11/22 02:35:08;;;;;;;0.10;0.10;;;;;;;;;;5031876;28;20044;-92
2023/11/22 02:37:35;;;;;;;0.10;0.10;;;;;;;;;;5032038;28;20101;-92
2023/11/22 02:40:04;;;;;;;0.08;0.08;;;;;;;;;;5033441;28;20046;-93
2023/11/22 02:42:46;;;;;;;0.10;0.10;;;;;;;;;;5013327;28;20061;-92
2023/11/22 02:45:14;;;;;;;0.10;0.10;;;;;;;;;;5012835;28;20058;-92
2023/11/22 02:47:47;;;;;;;0.10;0.10;;;;;;;;;;5030241;28;20073;-91
2023/11/22 02:50:18;;;;;;;0.00;0.00;;;;;;;;;;5013551;28;20074;-90
2023/11/22 02:52:45;;;;;;;0.10;0.10;;;;;;;;;;5038183;28;20109;-89
2023/11/22 02:55:16;;;;;;;0.10;0.10;;;;;;;;;;5019478;28;20061;-91
2023/11/22 02:57:45;;;;;;;0.10;0.10;;;;;;;;;;5032271;28;20056;-92
2023/11/22 03:00:18;;;;;;;0.10;0.10;;;;;;;;;;5032377;28;20057;-90
2023/11/22 03:03:14;;;;;;;;;;;;;;;;;;;;;
2023/11/22 03:05:58;;;;;;;0.10;0.10;;;;;;;;;;5035675;28;20045;-92
2023/11/22 03:08:28;;;;;;;0.10;0.10;;;;;;;;;;5013895;28;20130;-90
2023/11/22 03:10:57;;;;;;;0.10;0.10;;;;;;;;;;5016940;28;20061;-91
2023/11/22 03:13:26;;;;;;;0.10;0.10;;;;;;;;;;5013103;28;20062;-91
2023/11/22 03:15:55;;;;;;;0.10;0.10;;;;;;;;;;5030141;28;20050;-92
2023/11/22 03:18:23;;;;;;;0.08;0.08;;;;;;;;;;5015039;28;20050;-92
2023/11/22 03:20:54;;;;;;;0.10;0.10;;;;;;;;;;5012068;28;20053;-92
2023/11/22 03:23:22;;;;;;;0.10;0.10;;;;;;;;;;5011184;28;20050;-92
2023/11/22 03:25:50;;;;;;;0.10;0.10;;;;;;;;;;5032390;28;20073;-91
2023/11/22 03:28:22;;;;;;;0.10;0.10;;;;;;;;;;5016945;28;20334;-91
2023/11/22 03:30:52;;;;;;;0.10;0.10;;;;;;;;;;5013953;28;20445;-92
2023/11/22 03:33:20;;;;;;;0.10;0.10;;;;;;;;;;5029936;28;20054;-92
2023/11/22 03:35:48;;;;;;;0.10;0.10;;;;;;;;;;5012944;28;20418;-93
2023/11/22 03:38:16;;;;;;;0.10;0.10;;;;;;;;;;5012323;28;20049;-91
2023/11/22 03:40:47;;;;;;;0.10;0.10;;;;;;;;;;5030005;28;20061;-92
2023/11/22 03:43:16;;;;;;;0.15;0.15;;;;;;;;;;5030522;28;20257;-92
2023/11/22 03:45:44;;;;;;;0.10;0.10;;;;;;;;;;5014146;28;20386;-92
2023/11/22 03:48:12;;;;;;;0.00;0.00;;;;;;;;;;5012044;28;20499;-92
2023/11/22 03:50:42;;;;;;;0.10;0.10;;;;;;;;;;5012267;28;20098;-92
2023/11/22 03:53:23;;;;;;;0.10;0.10;;;;;;;;;;5001005;28;20053;-90
2023/11/22 03:55:54;;;;;;;0.10;0.10;;;;;;;;;;5029257;28;20073;-92
2023/11/22 03:58:23;;;;;;;0.10;0.10;;;;;;;;;;5029091;28;20037;-92
2023/11/22 04:00:52;;;;;;;0.10;0.10;;;;;;;;;;5028291;28;20074;-92
2023/11/22 04:03:22;;;;;;;0.10;0.10;;;;;;;;;;5027947;28;20049;-92
2023/11/22 04:05:51;;;;;;;0.10;0.10;;;;;;;;;;5028109;28;20060;-92
2023/11/22 04:08:19;;;;;;;0.10;0.10;;;;;;;;;;5028235;28;20070;-91
2023/11/22 04:10:48;;;;;;;0.10;0.10;;;;;;;;;;5011397;28;20060;-92
2023/11/22 04:13:20;;;;;;;0.10;0.10;;;;;;;;;;5013482;28;20619;-92
2023/11/22 04:15:49;;;;;;;0.10;0.10;;;;;;;;;;5027596;28;20056;-92
2023/11/22 04:18:17;;;;;;;0.10;0.10;;;;;;;;;;5010394;28;20053;-93
2023/11/22 04:20:48;;;;;;;0.00;0.00;;;;;;;;;;5011201;28;20133;-92
2023/11/22 04:23:16;;;;;;;0.10;0.10;;;;;;;;;;5013183;28;20046;-93
2023/11/22 04:25:49;;;;;;;0.10;0.10;;;;;;;;;;5011988;28;20072;-92
2023/11/22 04:28:18;;;;;;;0.10;0.10;;;;;;;;;;5027641;28;20050;-92
2023/11/22 04:30:46;;;;;;;0.10;0.10;;;;;;;;;;5008831;28;20050;-91
2023/11/22 04:33:17;;;;;;;0.10;0.10;;;;;;;;;;5009897;28;20074;-91
2023/11/22 04:35:58;;;;;;;0.10;0.10;;;;;;;;;;5015043;28;20065;-91
2023/11/22 04:38:39;;;;;;;0.10;0.10;;;;;;;;;;5010717;28;20038;-91
2023/11/22 04:41:10;;;;;;;0.10;0.10;;;;;;;;;;5009742;28;20056;-92
2023/11/22 04:43:39;;;;;;;0.10;0.10;;;;;;;;;;5008750;28;20068;-92
2023/11/22 04:46:09;;;;;;;0.10;0.10;;;;;;;;;;5009273;28;20056;-92
2023/11/22 04:48:40;;;;;;;0.10;0.10;;;;;;;;;;5008672;28;20245;-91
2023/11/22 04:51:09;;;;;;;0.00;0.00;;;;;;;;;;5012179;28;20054;-91
2023/11/22 04:53:38;;;;;;;0.00;0.00;;;;;;;;;;5008989;28;20050;-91
2023/11/22 04:59:09;;;;;;;0.10;0.10;;;;;;;;;;5132005;22;20129;-91
2023/11/22 05:01:38;;;;;;;0.10;0.10;;;;;;;;;;5066975;28;20060;-91
2023/11/22 05:04:08;;;;;;;0.03;0.03;;;;;;;;;;5067720;28;20050;-91
2023/11/22 05:06:38;;;;;;;0.10;0.10;;;;;;;;;;5068244;28;20055;-91
2023/11/22 05:09:06;;;;;;;0.10;0.10;;;;;;;;;;5084918;28;20048;-91
2023/11/22 05:11:37;;;;;;;0.10;0.10;;;;;;;;;;5070164;28;20052;-91
2023/11/22 05:14:04;;;;;;;0.00;0.00;;;;;;;;;;5084366;28;20052;-92
2023/11/22 05:16:33;;;;;;;0.10;0.10;;;;;;;;;;5067232;28;20054;-91
2023/11/22 05:19:01;;;;;;;0.10;0.10;;;;;;;;;;5067019;28;20049;-91
2023/11/22 05:21:32;;;;;;;0.13;0.13;;;;;;;;;;5066001;28;20107;-91
2023/11/22 05:24:18;;;;;;;0.10;0.10;;;;;;;;;;5069931;28;20059;-90
2023/11/22 05:26:50;;;;;;;0.03;0.03;;;;;;;;;;5084219;28;20065;-91
2023/11/22 05:29:44;;;;;;;0.10;0.10;;;;;;;;;;5085130;28;20052;-90
2023/11/22 05:32:21;;;;;;;0.10;0.10;;;;;;;;;;5068617;28;20098;-90
2023/11/22 05:34:53;;;;;;;0.10;0.10;;;;;;;;;;5068246;28;20048;-90
2023/11/22 05:37:22;;;;;;;0.10;0.10;;;;;;;;;;5084807;28;20059;-91
2023/11/22 05:39:52;;;;;;;0.10;0.10;;;;;;;;;;5069128;28;20044;-91
2023/11/22 05:42:32;;;;;;;0.10;0.10;;;;;;;;;;5070248;28;20309;-92
2023/11/22 05:45:05;;;;;;;0.05;0.05;;;;;;;;;;5067777;28;20063;-91
2023/11/22 05:47:35;;;;;;;0.10;0.10;;;;;;;;;;5067793;28;20261;-91
2023/11/22 05:50:13;;;;;;;0.10;0.10;;;;;;;;;;5069358;28;20044;-91
2023/11/22 05:52:49;;;;;;;0.10;0.10;;;;;;;;;;5071799;28;20112;-90
2023/11/22 05:55:18;;;;;;;0.10;0.10;;;;;;;;;;5067455;22;20063;-90
2023/11/22 05:57:47;;;;;;;0.03;0.03;;;;;;;;;;5049670;28;20049;-88
2023/11/22 06:00:15;;;;;;;0.00;0.00;;;;;;;;;;5051119;28;20080;-91
2023/11/22 06:02:59;;;;;;;0.10;0.10;;;;;;;;;;5067205;28;20080;-91
2023/11/22 06:05:40;;;;;;;0.10;0.10;;;;;;;;;;5046595;28;20059;-89
2023/11/22 06:08:09;;;;;;;0.10;0.10;;;;;;;;;;5046023;28;20049;-91
2023/11/22 16:31:19;;;;;;;0.10;0.10;;;;;;;;;;4997796;28;20081;-88
2023/11/22 16:34:06;;;;;;;0.28;0.28;;;;;;;;;;4985245;28;20054;-88
2023/11/22 16:36:52;;;;;;;0.10;0.10;;;;;;;;;;4982349;28;20034;-88
2023/11/22 16:40:03;;;;;;;0.10;0.10;;;;;;;;;;4982731;28;20050;-89
2023/11/22 16:42:57;;;;;;;0.55;0.55;;;;;;;;;;5003568;28;20442;-89
2023/11/22 16:49:08;;;;;;;0.10;0.10;;;;;;;;;;5062521;28;20144;-88
2023/11/22 16:51:48;;;;;;;0.10;0.10;;;;;;;;;;5046659;28;20096;-89
2023/11/22 16:54:26;;;;;;;0.10;0.10;;;;;;;;;;5061525;28;20055;-88
2023/11/22 16:56:58;;;;;;;0.10;0.10;;;;;;;;;;5043465;28;20359;-89
2023/11/22 16:59:27;;;;;;;0.15;0.15;;;;;;;;;;5043703;28;20072;-90
2023/11/22 18:10:05;;;;;;;1.73;1.65;;;;;;;;;;5004426;28;20334;-90
2023/11/22 18:12:44;;;;;;;0.30;0.30;;;;;;;;;;4989992;28;20311;-91
2023/11/22 18:15:41;;;;;;;;;;;;;;;;;;;;;
2023/11/22 18:18:22;;;;;;;0.22;0.22;;;;;;;;;;5007147;28;20146;-90
2023/11/22 18:21:03;;;;;;;0.10;0.10;;;;;;;;;;4992053;28;20148;-90
2023/11/22 18:23:44;;;;;;;0.10;0.10;;;;;;;;;;4999564;28;20060;-90
2023/11/22 18:26:27;;;;;;;0.20;0.20;;;;;;;;;;4999916;28;20073;-91
2023/11/22 18:29:15;;;;;;;0.30;0.30;;;;;;;;;;5000194;28;20050;-90
2023/11/22 18:32:02;;;;;;;0.20;0.20;;;;;;;;;;4996236;28;20076;-91
2023/11/22 18:34:44;;;;;;;0.10;0.10;;;;;;;;;;4993689;28;20050;-90
2023/11/22 18:37:28;;;;;;;0.10;0.10;;;;;;;;;;4993627;28;20104;-91
2023/11/22 18:40:12;;;;;;;0.10;0.10;;;;;;;;;;5009063;28;20046;-91
2023/11/22 18:42:52;;;;;;;0.10;0.10;;;;;;;;;;4991963;28;20074;-90
2023/11/22 18:45:23;;;;;;;0.30;0.30;;;;;;;;;;4992319;28;20093;-90
2023/11/22 18:48:03;;;;;;;0.10;0.10;;;;;;;;;;4992000;28;20053;-90
2023/11/22 18:50:39;;;;;;;0.20;0.20;;;;;;;;;;4995067;28;20054;-89
2023/11/22 18:53:19;;;;;;;0.25;0.25;;;;;;;;;;4996671;28;20053;-90
2023/11/22 18:55:59;;;;;;;0.17;0.17;;;;;;;;;;4993421;28;20121;-89
2023/11/22 18:58:42;;;;;;;0.10;0.10;;;;;;;;;;4993835;28;20038;-90
2023/11/22 19:01:28;;;;;;;0.20;0.20;;;;;;;;;;4990862;28;20034;-90
2023/11/22 19:04:04;;;;;;;1.80;0.57;;;;;;;;;;4990804;28;20047;-90
2023/11/22 19:07:05;;;;;;;0.20;0.20;;;;;;;;;;4996007;28;20324;-90
2023/11/22 19:09:51;;;;;;;0.05;0.05;;;;;;;;;;5012765;28;20069;-90
2023/11/22 19:12:32;;;;;;;0.17;0.17;;;;;;;;;;4989517;28;20046;-90
2023/11/22 19:15:12;;;;;;;0.10;0.10;;;;;;;;;;4991176;28;20065;-90
2023/11/22 19:17:58;;;;;;;0.10;0.10;;;;;;;;;;4989351;28;20523;-90
2023/11/22 19:20:40;;;;;;;0.03;0.03;;;;;;;;;;4992804;28;20050;-91
2023/11/22 19:23:38;;;;;;;0.60;0.57;;;;;;;;;;5004509;28;20081;-91
2023/11/22 19:26:22;;;;;;;0.10;0.10;;;;;;;;;;4992160;28;20061;-90
2023/11/22 19:28:52;;;;;;;0.20;0.10;;;;;;;;;;4994121;28;20110;-89
2023/11/22 19:31:34;;;;;;;0.10;0.10;;;;;;;;;;4992853;28;20092;-90
2023/11/22 19:34:07;;;;;;;0.10;0.10;;;;;;;;;;4991906;28;20073;-90
2023/11/22 19:36:48;;;;;;;0.30;0.30;;;;;;;;;;4993706;28;20094;-90
2023/11/22 19:39:22;;;;;;;0.40;0.40;;;;;;;;;;4996674;28;20060;-90
2023/11/22 19:41:56;;;;;;;0.10;0.10;;;;;;;;;;5010855;28;20080;-90
2023/11/22 19:44:27;;;;;;;0.10;0.10;;;;;;;;;;4991285;28;20086;-90
2023/11/22 19:47:08;;;;;;;0.75;0.75;;;;;;;;;;4991209;28;20042;-90
2023/11/22 19:49:39;;;;;;;1.95;0.20;;;;;;;;;;4992911;28;20066;-90
2023/11/22 19:52:14;;;;;;;0.10;0.10;;;;;;;;;;5011177;28;20078;-90
2023/11/22 19:54:52;;;;;;;0.47;0.47;;;;;;;;;;4992292;28;20065;-91
2023/11/22 19:57:28;;;;;;;0.22;0.22;;;;;;;;;;4991928;28;20072;-90
2023/11/22 20:00:13;;;;;;;0.10;0.10;;;;;;;;;;5011838;28;20073;-90
2023/11/22 20:02:54;;;;;;;0.28;0.28;;;;;;;;;;5008165;28;20049;-91
2023/11/22 20:05:37;;;;;;;0.68;0.60;;;;;;;;;;5013148;28;20050;-91
2023/11/22 20:08:19;;;;;;;0.55;0.55;;;;;;;;;;4996941;28;20081;-90
2023/11/22 20:10:49;;;;;;;0.35;0.35;;;;;;;;;;4990609;28;20082;-90
2023/11/22 20:13:20;;;;;;;0.10;0.10;;;;;;;;;;4989340;28;20054;-90
2023/11/22 20:15:54;;;;;;;0.10;0.10;;;;;;;;;;4989490;28;20114;-89
2023/11/22 20:18:26;;;;;;;0.65;0.47;;;;;;;;;;4990045;28;20084;-90
2023/11/22 20:20:57;;;;;;;0.47;0.47;;;;;;;;;;4988790;28;20106;-89
2023/11/22 20:23:26;;;;;;;0.10;0.10;;;;;;;;;;4989165;28;20066;-90
2023/11/22 20:25:55;;;;;;;0.17;0.10;;;;;;;;;;4989639;28;20298;-90
2023/11/22 20:28:36;;;;;;;1.15;0.60;;;;;;;;;;4991151;28;20056;-90
2023/11/22 20:31:18;;;;;;;0.30;0.30;;;;;;;;;;4990526;28;20101;-89
2023/11/22 20:34:02;;;;;;;0.10;0.10;;;;;;;;;;4990798;28;20254;-88
2023/11/22 20:36:46;;;;;;;1.13;1.13;;;;;;;;;;4990421;28;20041;-90
2023/11/22 20:39:27;;;;;;;0.43;0.43;;;;;;;;;;5000202;28;20030;-90
2023/11/22 20:42:01;;;;;;;0.50;0.50;;;;;;;;;;4991755;28;20069;-90
2023/11/22 20:44:42;;;;;;;0.05;0.05;;;;;;;;;;4988388;28;20061;-89
2023/11/22 20:47:23;;;;;;;0.03;0.03;;;;;;;;;;4988872;28;20061;-89
2023/11/22 20:50:07;;;;;;;0.30;0.30;;;;;;;;;;4989977;28;20391;-90
2023/11/22 20:52:37;;;;;;;0.77;0.77;;;;;;;;;;5008723;28;20046;-89
2023/11/22 20:55:35;;;;;;;0.43;0.43;;;;;;;;;;4991586;28;20050;-90
2023/11/22 20:58:14;;;;;;;0.63;0.63;;;;;;;;;;4991435;28;20054;-89
2023/11/22 21:00:55;;;;;;;0.85;0.85;;;;;;;;;;4991106;28;20415;-89
2023/11/22 21:03:22;;;;;;;0.28;0.22;;;;;;;;;;4989189;28;20336;-89
2023/11/22 21:05:51;;;;;;;4.07;0.35;;;;;;;;;;4993323;28;20102;-89
2023/11/22 21:08:32;;;;;;;0.25;0.25;;;;;;;;;;4991686;28;20058;-89
2023/11/22 21:11:13;;;;;;;0.68;0.43;;;;;;;;;;5005458;28;20057;-89
2023/11/22 21:13:56;;;;;;;1.52;1.13;;;;;;;;;;4989347;28;20117;-88
2023/11/22 21:16:40;;;;;;;0.35;0.28;;;;;;;;;;4986346;28;20077;-89
2023/11/22 21:19:13;;;;;;;0.57;0.57;;;;;;;;;;4987266;28;20061;-88
2023/11/22 21:25:09;;;;;;;0.55;0.30;;;;;;;;;;5003982;28;20104;-89
2023/11/22 21:27:41;;;;;;;0.20;0.20;;;;;;;;;;5004825;28;20101;-89
2023/11/22 21:30:24;;;;;;;0.65;0.50;;;;;;;;;;4987278;28;20149;-89
2023/11/22 21:32:54;;;;;;;0.10;0.10;;;;;;;;;;4988516;28;20054;-89
2023/11/22 21:35:21;;;;;;;3.60;1.15;;;;;;;;;;4995411;28;20085;-88
2023/11/22 21:37:54;;;;;;;0.10;0.10;;;;;;;;;;4989767;28;20054;-88
2023/11/22 21:40:24;;;;;;;3.10;2.65;;;;;;;;;;4987649;28;20092;-88
2023/11/22 21:43:07;;;;;;;2.80;1.50;;;;;;;;;;4989307;28;20111;-87
2023/11/22 21:45:48;;;;;;;0.35;0.28;;;;;;;;;;4989527;28;20054;-87
2023/11/22 21:48:29;;;;;;;0.90;0.75;;;;;;;;;;4988972;28;20050;-88
2023/11/22 21:51:04;;;;;;;1.23;1.10;;;;;;;;;;4987388;28;20066;-89
2023/11/22 21:53:46;;;;;;;0.32;0.32;;;;;;;;;;4987091;28;20089;-89
2023/11/22 21:56:18;;;;;;;0.10;0.10;;;;;;;;;;4989772;28;20057;-88
2023/11/22 21:58:47;;;;;;;3.75;2.80;;;;;;;;;;4991147;28;20065;-89
2023/11/22 22:01:28;;;;;;;0.10;0.10;;;;;;;;;;4991164;28;20038;-88
2023/11/22 22:04:09;;;;;;;1.00;0.88;;;;;;;;;;5006896;28;20050;-87
2023/11/22 22:06:38;;;;;;;0.10;0.10;;;;;;;;;;5008468;28;20070;-89
2023/11/22 22:09:12;;;;;;;0.10;0.10;;;;;;;;;;5010110;28;20062;-89
2023/11/22 22:11:53;;;;;;;0.10;0.10;;;;;;;;;;5007067;28;20063;-88
2023/11/22 22:14:34;;;;;;;0.10;0.10;;;;;;;;;;4993948;28;20110;-88
2023/11/22 22:17:13;;;;;;;1.85;1.13;;;;;;;;;;4996673;28;20065;-88
2023/11/22 22:19:52;;;;;;;0.10;0.10;;;;;;;;;;4992292;28;20084;-88
2023/11/22 22:22:21;;;;;;;0.15;0.15;;;;;;;;;;5007966;28;20054;-90
2023/11/22 22:25:13;;;;;;;1.13;1.02;;;;;;;;;;4991986;28;20065;-88
2023/11/22 22:27:55;;;;;;;0.00;0.00;;;;;;;;;;5006667;28;20050;-88
2023/11/22 22:30:37;;;;;;;0.03;0.03;;;;;;;;;;4992898;28;20106;-88
2023/11/22 22:33:06;;;;;;;1.25;1.17;;;;;;;;;;4991147;28;20121;-89
2023/11/22 22:35:48;;;;;;;0.63;0.55;;;;;;;;;;4991420;28;20072;-89
2023/11/22 22:38:27;;;;;;;1.65;1.55;;;;;;;;;;4993573;28;20054;-88
2023/11/22 22:41:08;;;;;;;0.20;0.20;;;;;;;;;;4994489;28;20085;-87
2023/11/22 22:43:49;;;;;;;1.98;0.65;;;;;;;;;;4992244;28;20058;-89
2023/11/22 22:46:30;;;;;;;0.20;0.20;;;;;;;;;;4990027;28;20054;-88
2023/11/22 22:49:08;;;;;;;0.70;0.70;;;;;;;;;;4993784;28;20122;-88
2023/11/22 22:51:50;;;;;;;5.00;3.22;;;;;;;;;;4990378;28;20054;-88
2023/11/22 22:54:31;;;;;;;19.38;9.93;;;;;;;;;;4984527;28;20071;-90
2023/11/22 22:56:59;;;;;;;0.38;0.38;;;;;;;;;;4993647;28;20058;-91
2023/11/22 22:59:26;;;;;;;0.82;0.82;;;;;;;;;;5010220;28;20133;-91
2023/11/22 23:01:56;;;;;;;0.22;0.20;;;;;;;;;;4999516;28;20042;-90
2023/11/22 23:04:26;;;;;;;0.25;0.25;;;;;;;;;;4994784;28;20060;-92
2023/11/22 23:06:54;;;;;;;3.50;2.10;;;;;;;;;;4993159;28;20054;-91
2023/11/22 23:09:24;;;;;;;1.83;1.42;;;;;;;;;;5009671;28;20085;-91
2023/11/22 23:11:53;;;;;;;0.10;0.10;;;;;;;;;;5009711;28;20050;-91
2023/11/22 23:14:21;;;;;;;4.85;1.38;;;;;;;;;;4993083;28;20069;-92
2023/11/22 23:16:48;;;;;;;1.23;0.82;;;;;;;;;;4992916;28;20054;-91
2023/11/22 23:19:16;;;;;;;0.75;0.75;;;;;;;;;;5012294;28;20035;-92
2023/11/22 23:22:01;;;;;;;0.40;0.32;;;;;;;;;;5000088;28;20065;-91
2023/11/22 23:24:31;;;;;;;0.10;0.10;;;;;;;;;;4995042;28;20050;-91
2023/11/22 23:30:23;;;;;;;0.00;0.00;;;;;;;;;;5010584;28;20045;-91
2023/11/22 23:33:04;;;;;;;1.85;0.20;;;;;;;;;;4991455;28;20148;-91
2023/11/22 23:35:36;;;;;;;0.70;0.70;;;;;;;;;;4985808;28;20042;-92
2023/11/22 23:38:10;;;;;;;1.02;0.60;;;;;;;;;;5008924;28;20403;-91
2023/11/22 23:40:44;;;;;;;0.10;0.10;;;;;;;;;;5009552;28;20077;-90
2023/11/22 23:43:14;;;;;;;1.25;0.43;;;;;;;;;;4993628;28;20054;-91
2023/11/22 23:45:43;;;;;;;0.15;0.15;;;;;;;;;;5009827;28;20617;-91
2023/11/22 23:48:12;;;;;;;1.55;0.65;;;;;;;;;;4996048;28;20052;-91
2023/11/22 23:50:48;;;;;;;3.80;2.30;;;;;;;;;;5008573;28;20062;-90
2023/11/22 23:53:20;;;;;;;0.95;0.82;;;;;;;;;;4993170;28;20054;-91
2023/11/22 23:55:49;;;;;;;2.40;2.28;;;;;;;;;;5009897;28;20050;-92
2023/11/22 23:58:17;;;;;;;1.60;1.02;;;;;;;;;;4993661;28;20313;-91
